• Join FlightAware (Why Join?)
  • Login
  • US Flag 
02:39PM EDT


 

Airport Tracker/Info


-or-


 

Live Flight TrackerFlight Track Log ✈ UCA597 ✈ 06-Sep-2013 ✈ KIAD - KBGM

Flight Track Log - Related Links

Times and Time Zones

All times are in EDT time to prevent confusion due to time zone crossing. See the UCA597 flight status page for this flight to view local times or setup timezone preferences in your user account.

Time Position Orientation Groundspeed Altitude Reporting Facility
EDT Latitude Longitude Course Direction KTS MPH feet Rate Location/Type
05:49PM 38.9833 -77.4500 322° Northwest 157 181 1,800  Level Potomac TRACON
05:50PM 39.0167 -77.4833 322° Northwest 171 197 3,400 1,680 Climbing Potomac TRACON
05:51PM 39.0667 -77.5167 333° Northwest 179 206 5,200 1,500 Climbing Potomac TRACON
05:53PM 39.1392 -77.5611 335° Northwest 176 203 7,800 1,320 Climbing Washington Center
05:54PM 39.1825 -77.5892 333° Northwest 176 203 9,100 1,200 Climbing Washington Center
05:55PM 39.2281 -77.6039 346° North 181 208 10,300 1,140 Climbing Washington Center
05:56PM 39.2742 -77.5836 19° North 186 214 11,500 1,200 Climbing Washington Center
05:57PM 39.3203 -77.5714 12° North 180 207 12,800 1,260 Climbing Washington Center
05:58PM 39.3622 -77.5564 15° North 163 188 14,000 1,080 Climbing Washington Center
05:59PM 39.4083 -77.5417 14° North 163 188 15,000 960 Climbing Washington Center
06:00PM 39.4544 -77.5242 16° North 168 193 16,000 480 Climbing Washington Center
06:01PM 39.5089 -77.5039 16° North 168 193 16,000 300 Level Washington Center
06:03PM 39.6489 -77.4528 16° North 213 245 17,000 300 Climbing New York Center
06:04PM 39.7050 -77.4553 358° North 213 245 17,000  Level New York Center
06:05PM 39.7764 -77.4514 North 227 261 17,000  Level New York Center
06:05PM 39.7764 -77.4514 North 227 261 17,000  Level New York Center
06:06PM 39.8347 -77.4514 360° North 227 261 17,000  Level New York Center
06:06PM 39.8347 -77.4514 360° North 227 261 17,000  Level New York Center
06:07PM 39.9078 -77.4503 North 232 267 17,000  Level New York Center
06:07PM 39.9078 -77.4503 North 232 267 17,000  Level New York Center
06:08PM 39.9617 -77.4203 23° Northeast 232 267 17,000  Level New York Center
06:08PM 39.9617 -77.4203 23° Northeast 232 267 17,000  Level New York Center
06:09PM 40.0239 -77.3881 22° Northeast 227 261 17,000  Level New York Center
06:09PM 40.0239 -77.3881 22° Northeast 227 261 17,000  Level New York Center
06:10PM 40.0756 -77.3578 24° Northeast 222 255 17,000  Level New York Center
06:10PM 40.0756 -77.3578 24° Northeast 222 255 17,000  Level New York Center
06:11PM 40.1403 -77.3206 24° Northeast 222 255 17,000  Level New York Center
06:11PM 40.1403 -77.3206 24° Northeast 222 255 17,000  Level New York Center
06:12PM 40.1919 -77.2900 24° Northeast 222 255 17,000  Level New York Center
06:12PM 40.1919 -77.2900 24° Northeast 222 255 17,000  Level New York Center
06:13PM 40.2561 -77.2581 21° North 222 255 17,000  Level New York Center
06:13PM 40.2561 -77.2581 21° North 222 255 17,000  Level New York Center
06:14PM 40.3058 -77.2272 25° Northeast 222 255 17,000  Level New York Center
06:14PM 40.3058 -77.2272 25° Northeast 222 255 17,000  Level New York Center
06:15PM 40.3703 -77.1922 22° Northeast 222 255 17,000  Level New York Center
06:15PM 40.3703 -77.1922 22° Northeast 222 255 17,000  Level New York Center
06:16PM 40.4219 -77.1617 24° Northeast 222 255 17,000  Level New York Center
06:16PM 40.4219 -77.1617 24° Northeast 222 255 17,000  Level New York Center
06:17PM 40.4822 -77.1264 24° Northeast 217 250 17,000  Level New York Center
06:17PM 40.4822 -77.1264 24° Northeast 217 250 17,000  Level New York Center
06:18PM 40.5317 -77.0981 24° Northeast 217 250 17,000  Level New York Center
06:18PM 40.5317 -77.0981 24° Northeast 217 250 17,000  Level New York Center
06:19PM 40.5919 -77.0653 22° Northeast 217 250 17,000  Level New York Center
06:19PM 40.5919 -77.0653 22° Northeast 217 250 17,000  Level New York Center
06:20PM 40.6392 -77.0369 24° Northeast 217 250 17,000  Level New York Center
06:20PM 40.6392 -77.0369 24° Northeast 217 250 17,000  Level New York Center
06:21PM 40.6931 -77.0061 23° Northeast 212 244 17,000  Level New York Center
06:21PM 40.6931 -77.0061 23° Northeast 212 244 17,000  Level New York Center
06:22PM 40.7486 -76.9756 23° Northeast 212 244 17,000  Level New York Center
06:22PM 40.7486 -76.9756 23° Northeast 212 244 17,000  Level New York Center
06:23PM 40.8047 -76.9422 24° Northeast 212 244 17,000  Level New York Center
06:23PM 40.8047 -76.9422 24° Northeast 212 244 17,000 -120 Level New York Center
06:24PM 40.8542 -76.9111 25° Northeast 207 238 16,900 -120 Descending New York Center
06:24PM 40.8542 -76.9111 25° Northeast 207 238 16,900 -600 Level New York Center
06:25PM 40.9186 -76.8758 22° Northeast 207 238 16,300 -600 Descending New York Center
06:25PM 40.9186 -76.8758 22° Northeast 207 238 16,300 -600 Level New York Center
06:26PM 40.9703 -76.8447 24° Northeast 217 250 15,700 -600 Descending New York Center
06:26PM 40.9703 -76.8447 24° Northeast 217 250 15,700 -600 Level New York Center
06:27PM 41.0303 -76.8089 24° Northeast 223 257 15,100 -600 Descending New York Center
06:27PM 41.0303 -76.8089 24° Northeast 223 257 15,100 -120 Level New York Center
06:28PM 41.0903 -76.7756 23° Northeast 223 257 15,000 -120 Descending New York Center
06:28PM 41.0903 -76.7756 23° Northeast 223 257 15,000  Level New York Center
06:29PM 41.1442 -76.7444 23° Northeast 218 251 15,000  Level New York Center
06:29PM 41.1442 -76.7444 23° Northeast 218 251 15,000  Level New York Center
06:30PM 41.1978 -76.7133 24° Northeast 218 251 15,000  Level New York Center
06:30PM 41.1978 -76.7133 24° Northeast 218 251 15,000  Level New York Center
06:31PM 41.2581 -76.6744 26° Northeast 218 251 15,000  Level New York Center
06:31PM 41.2581 -76.6744 26° Northeast 218 251 15,000  Level New York Center
06:32PM 41.3139 -76.6406 25° Northeast 218 251 15,000  Level New York Center
06:32PM 41.3139 -76.6406 25° Northeast 218 251 15,000  Level New York Center
06:33PM 41.3694 -76.6097 23° Northeast 218 251 15,000  Level New York Center
06:33PM 41.3694 -76.6097 23° Northeast 218 251 15,000  Level New York Center
06:34PM 41.4208 -76.5808 23° Northeast 218 251 15,000  Level New York Center
06:34PM 41.4208 -76.5808 23° Northeast 218 251 15,000  Level New York Center
06:35PM 41.4831 -76.5447 23° Northeast 218 251 15,000  Level New York Center
06:35PM 41.4831 -76.5447 23° Northeast 218 251 15,000  Level New York Center
06:36PM 41.5389 -76.5106 25° Northeast 218 251 15,000  Level New York Center
06:36PM 41.5389 -76.5106 25° Northeast 218 251 15,000 -720 Level New York Center
06:37PM 41.5969 -76.4739 25° Northeast 224 258 14,300 -720 Descending New York Center
06:37PM 41.5969 -76.4739 25° Northeast 224 258 14,300 -600 Level New York Center
06:38PM 41.6528 -76.4400 24° Northeast 224 258 13,700 -600 Descending New York Center
06:38PM 41.6528 -76.4400 24° Northeast 224 258 13,700 -1,200 Level New York Center
06:39PM 41.7147 -76.4064 22° Northeast 229 264 12,500 -1,200 Descending New York Center
06:39PM 41.7147 -76.4064 22° Northeast 229 264 12,500 -1,620 Level New York Center
06:40PM 41.7778 -76.3475 35° Northeast 244 281 10,900 -1,620 Descending New York Center
06:40PM 41.7778 -76.3475 35° Northeast 244 281 10,900 -1,320 Level New York Center
06:41PM 41.8247 -76.2819 46° Northeast 244 281 9,600 -1,320 Descending New York Center
06:41PM 41.8247 -76.2819 46° Northeast 244 281 9,600 -1,440 Level New York Center
06:42PM 41.8714 -76.2189 45° Northeast 239 275 8,200 -1,440 Descending New York Center
06:42PM 41.8714 -76.2189 45° Northeast 239 275 8,200 -1,200 Level New York Center
06:43PM 41.9092 -76.1636 47° Northeast 227 261 7,000 -1,200 Descending New York Center
06:43PM 41.9092 -76.1636 47° Northeast 227 261 7,000 -1,020 Level New York Center
06:44PM 41.9556 -76.1061 43° Northeast 227 261 6,000 -1,020 Descending New York Center
06:44PM 41.9556 -76.1061 43° Northeast 227 261 6,000 -1,140 Level New York Center
06:45PM 42.0103 -76.0433 40° Northeast 227 261 4,900 -1,140 Descending New York Center
06:45PM 42.0103 -76.0433 40° Northeast 227 261 4,900 -840 Level New York Center
06:46PM 42.0608 -75.9861 40° Northeast 227 261 4,100 -840 Descending New York Center
06:46PM 42.0608 -75.9861 40° Northeast 227 261 4,100 -240 Level New York Center
06:47PM 42.1106 -75.9425 33° Northeast 221 254 3,900 -240 Descending New York Center
06:47PM 42.1106 -75.9425 33° Northeast 221 254 3,900 -840 Level New York Center
06:48PM 42.1567 -75.9347 North 174 200 3,100 -840 Descending New York Center
06:48PM 42.1567 -75.9347 North 174 200 3,100 -1,020 Level New York Center
06:49PM 42.1847 -75.9594 327° Northwest 154 177 2,100 -1,020 Descending New York Center
06:49PM 42.1847 -75.9594 327° Northwest 154 177 2,100 6,900 Level New York Center
06:50PM 42.2350 -75.9494 North 154 177 9,000 6,900 Climbing New York Center
06:50PM 42.2350 -75.9494 North 154 177 9,000  Level New York Center
06:51PM 42.2767 -75.9528 357° North 154 177 9,000  Level New York Center
06:51PM 42.2767 -75.9528 357° North 154 177 9,000  Level New York Center